sensor_id;sensor_type;location;lat;lon;timestamp;temperature;humidity
1534;DHT22;760;48.822;9.304;2022-10-16T04:07:50;15.40;99.90
1534;DHT22;760;48.822;9.304;2022-10-16T04:10:16;15.40;99.90
1534;DHT22;760;48.822;9.304;2022-10-16T04:12:41;15.40;99.90
1534;DHT22;760;48.822;9.304;2022-10-16T04:15:07;15.30;99.90
1534;DHT22;760;48.822;9.304;2022-10-16T04:17:33;15.30;99.90
1534;DHT22;760;48.822;9.304;2022-10-16T04:19:58;15.30;99.90
1534;DHT22;760;48.822;9.304;2022-10-16T04:22:24;15.30;99.90
1534;DHT22;760;48.822;9.304;2022-10-16T04:24:50;15.30;99.90
1534;DHT22;760;48.822;9.304;2022-10-16T04:27:16;15.30;99.90
1534;DHT22;760;48.822;9.304;2022-10-16T04:29:41;15.30;99.90
1534;DHT22;760;48.822;9.304;2022-10-16T04:32:08;15.20;99.90
1534;DHT22;760;48.822;9.304;2022-10-16T04:34:34;15.20;99.90
1534;DHT22;760;48.822;9.304;2022-10-16T04:37:00;15.20;99.90
1534;DHT22;760;48.822;9.304;2022-10-16T04:39:25;15.20;99.90
1534;DHT22;760;48.822;9.304;2022-10-16T04:41:51;15.20;99.90
1534;DHT22;760;48.822;9.304;2022-10-16T04:44:16;15.20;99.90
1534;DHT22;760;48.822;9.304;2022-10-16T04:46:42;15.20;99.90
1534;DHT22;760;48.822;9.304;2022-10-16T04:49:09;15.20;99.90
1534;DHT22;760;48.822;9.304;2022-10-16T04:51:35;15.10;99.90
1534;DHT22;760;48.822;9.304;2022-10-16T04:54:00;15.10;99.90
1534;DHT22;760;48.822;9.304;2022-10-16T04:56:26;15.20;99.90
1534;DHT22;760;48.822;9.304;2022-10-16T04:58:51;15.10;99.90
1534;DHT22;760;48.822;9.304;2022-10-16T05:01:17;15.10;99.90
1534;DHT22;760;48.822;9.304;2022-10-16T05:03:42;15.10;99.90
1534;DHT22;760;48.822;9.304;2022-10-16T05:06:08;15.10;99.90
1534;DHT22;760;48.822;9.304;2022-10-16T05:08:34;15.10;99.90
1534;DHT22;760;48.822;9.304;2022-10-16T05:11:00;15.00;99.90
1534;DHT22;760;48.822;9.304;2022-10-16T05:13:26;15.00;99.90
1534;DHT22;760;48.822;9.304;2022-10-16T05:15:52;15.00;99.90
1534;DHT22;760;48.822;9.304;2022-10-16T05:18:18;15.00;99.90
1534;DHT22;760;48.822;9.304;2022-10-16T05:20:43;15.00;99.90
1534;DHT22;760;48.822;9.304;2022-10-16T05:23:09;15.00;99.90
1534;DHT22;760;48.822;9.304;2022-10-16T05:25:38;15.00;99.90
1534;DHT22;760;48.822;9.304;2022-10-16T05:28:03;15.00;99.90
1534;DHT22;760;48.822;9.304;2022-10-16T05:30:29;15.00;99.90
1534;DHT22;760;48.822;9.304;2022-10-16T05:32:55;15.00;99.90
1534;DHT22;760;48.822;9.304;2022-10-16T05:35:21;15.00;99.90
1534;DHT22;760;48.822;9.304;2022-10-16T05:37:46;15.00;99.90
1534;DHT22;760;48.822;9.304;2022-10-16T05:40:13;15.00;99.90
1534;DHT22;760;48.822;9.304;2022-10-16T05:42:39;14.90;99.90
1534;DHT22;760;48.822;9.304;2022-10-16T05:45:12;14.90;99.90
1534;DHT22;760;48.822;9.304;2022-10-16T05:47:37;14.90;99.90
1534;DHT22;760;48.822;9.304;2022-10-16T05:50:03;14.90;99.90
1534;DHT22;760;48.822;9.304;2022-10-16T05:52:29;14.80;99.90
1534;DHT22;760;48.822;9.304;2022-10-16T05:54:55;14.80;99.90
1534;DHT22;760;48.822;9.304;2022-10-16T05:57:20;14.80;99.90
1534;DHT22;760;48.822;9.304;2022-10-16T05:59:46;14.80;99.90
1534;DHT22;760;48.822;9.304;2022-10-16T06:02:13;14.80;99.90
1534;DHT22;760;48.822;9.304;2022-10-16T06:04:39;14.80;99.90
1534;DHT22;760;48.822;9.304;2022-10-16T06:07:04;14.80;99.90
1534;DHT22;760;48.822;9.304;2022-10-16T06:09:30;14.90;99.90
1534;DHT22;760;48.822;9.304;2022-10-16T06:11:55;14.80;99.90
1534;DHT22;760;48.822;9.304;2022-10-16T06:14:21;14.90;99.90
1534;DHT22;760;48.822;9.304;2022-10-16T06:16:47;14.90;99.90
1534;DHT22;760;48.822;9.304;2022-10-16T06:19:12;15.00;99.90
1534;DHT22;760;48.822;9.304;2022-10-16T06:21:38;15.00;99.90
1534;DHT22;760;48.822;9.304;2022-10-16T06:24:04;15.00;99.90
1534;DHT22;760;48.822;9.304;2022-10-16T06:26:30;15.10;99.90
1534;DHT22;760;48.822;9.304;2022-10-16T06:28:57;15.10;99.90
1534;DHT22;760;48.822;9.304;2022-10-16T06:31:24;15.20;99.90
1534;DHT22;760;48.822;9.304;2022-10-16T06:33:55;15.20;99.90
1534;DHT22;760;48.822;9.304;2022-10-16T06:36:22;15.20;99.90
1534;DHT22;760;48.822;9.304;2022-10-16T06:38:48;15.20;99.90
1534;DHT22;760;48.822;9.304;2022-10-16T06:41:16;15.20;99.90
1534;DHT22;760;48.822;9.304;2022-10-16T06:43:42;15.20;99.90
1534;DHT22;760;48.822;9.304;2022-10-16T06:46:12;15.30;99.90
1534;DHT22;760;48.822;9.304;2022-10-16T06:48:38;15.30;99.90
1534;DHT22;760;48.822;9.304;2022-10-16T06:51:14;15.30;99.90
1534;DHT22;760;48.822;9.304;2022-10-16T06:53:43;15.40;99.90
1534;DHT22;760;48.822;9.304;2022-10-16T06:56:29;15.40;99.90
1534;DHT22;760;48.822;9.304;2022-10-16T06:58:56;15.50;99.90
1534;DHT22;760;48.822;9.304;2022-10-16T07:01:23;15.60;99.90
1534;DHT22;760;48.822;9.304;2022-10-16T07:03:49;15.70;99.90
1534;DHT22;760;48.822;9.304;2022-10-16T07:06:17;15.70;99.90
1534;DHT22;760;48.822;9.304;2022-10-16T07:08:45;15.70;99.90
1534;DHT22;760;48.822;9.304;2022-10-16T07:11:16;15.70;99.90
1534;DHT22;760;48.822;9.304;2022-10-16T07:13:43;15.70;99.90
1534;DHT22;760;48.822;9.304;2022-10-16T07:16:11;15.80;99.90
1534;DHT22;760;48.822;9.304;2022-10-16T07:18:37;15.80;99.90
1534;DHT22;760;48.822;9.304;2022-10-16T07:21:10;15.90;99.90
1534;DHT22;760;48.822;9.304;2022-10-16T07:23:37;16.00;99.90
1534;DHT22;760;48.822;9.304;2022-10-16T07:26:03;16.10;99.90
1534;DHT22;760;48.822;9.304;2022-10-16T07:28:30;16.10;99.90
1534;DHT22;760;48.822;9.304;2022-10-16T07:31:00;16.30;99.90
1534;DHT22;760;48.822;9.304;2022-10-16T07:33:26;16.40;99.90
1534;DHT22;760;48.822;9.304;2022-10-16T07:35:53;16.50;99.90
1534;DHT22;760;48.822;9.304;2022-10-16T07:38:19;16.50;99.90
1534;DHT22;760;48.822;9.304;2022-10-16T07:40:45;16.60;99.90
1534;DHT22;760;48.822;9.304;2022-10-16T07:43:11;16.60;99.90
1534;DHT22;760;48.822;9.304;2022-10-16T07:45:37;16.70;99.90
1534;DHT22;760;48.822;9.304;2022-10-16T07:48:02;16.70;99.90
1534;DHT22;760;48.822;9.304;2022-10-16T07:50:28;16.60;99.90
1534;DHT22;760;48.822;9.304;2022-10-16T07:52:54;16.50;99.90
1534;DHT22;760;48.822;9.304;2022-10-16T07:55:19;16.50;99.90
1534;DHT22;760;48.822;9.304;2022-10-16T07:57:45;16.50;99.90
1534;DHT22;760;48.822;9.304;2022-10-16T08:00:11;16.60;99.90
1534;DHT22;760;48.822;9.304;2022-10-16T08:02:39;16.60;99.90
1534;DHT22;760;48.822;9.304;2022-10-16T08:05:06;16.60;99.90
1534;DHT22;760;48.822;9.304;2022-10-16T08:07:31;16.60;99.90
1534;DHT22;760;48.822;9.304;2022-10-16T08:09:57;16.70;99.90
1534;DHT22;760;48.822;9.304;2022-10-16T08:12:24;16.70;99.90
1534;DHT22;760;48.822;9.304;2022-10-16T08:14:50;16.70;99.90
1534;DHT22;760;48.822;9.304;2022-10-16T08:17:15;16.80;99.90
1534;DHT22;760;48.822;9.304;2022-10-16T08:19:44;16.90;99.90
1534;DHT22;760;48.822;9.304;2022-10-16T08:22:10;17.10;99.90
1534;DHT22;760;48.822;9.304;2022-10-16T08:24:36;17.20;99.90
1534;DHT22;760;48.822;9.304;2022-10-16T08:27:02;17.40;99.90
1534;DHT22;760;48.822;9.304;2022-10-16T08:29:28;17.60;99.90
1534;DHT22;760;48.822;9.304;2022-10-16T08:31:54;17.70;99.90
1534;DHT22;760;48.822;9.304;2022-10-16T08:34:19;17.90;99.90
1534;DHT22;760;48.822;9.304;2022-10-16T08:36:45;18.30;99.90
1534;DHT22;760;48.822;9.304;2022-10-16T08:39:10;18.80;99.90
1534;DHT22;760;48.822;9.304;2022-10-16T08:42:06;19.50;99.90
1534;DHT22;760;48.822;9.304;2022-10-16T08:47:26;20.50;99.90
1534;DHT22;760;48.822;9.304;2022-10-16T08:50:07;20.80;99.90
1534;DHT22;760;48.822;9.304;2022-10-16T08:52:35;21.10;99.90
1534;DHT22;760;48.822;9.304;2022-10-16T08:55:04;21.30;99.90
1534;DHT22;760;48.822;9.304;2022-10-16T08:57:30;21.30;99.90
1534;DHT22;760;48.822;9.304;2022-10-16T09:00:00;21.30;99.90
1534;DHT22;760;48.822;9.304;2022-10-16T09:02:39;21.30;99.90
1534;DHT22;760;48.822;9.304;2022-10-16T09:16:14;21.00;99.90
1534;DHT22;760;48.822;9.304;2022-10-16T09:19:00;20.90;99.90
1534;DHT22;760;48.822;9.304;2022-10-16T09:21:30;20.90;99.90
1534;DHT22;760;48.822;9.304;2022-10-16T09:24:13;20.90;99.90
1534;DHT22;760;48.822;9.304;2022-10-16T09:26:39;21.10;99.90
1534;DHT22;760;48.822;9.304;2022-10-16T09:29:05;21.20;99.90
1534;DHT22;760;48.822;9.304;2022-10-16T09:31:30;21.50;99.90
1534;DHT22;760;48.822;9.304;2022-10-16T09:33:59;21.90;99.90
1534;DHT22;760;48.822;9.304;2022-10-16T09:36:40;22.60;99.90
1534;DHT22;760;48.822;9.304;2022-10-16T09:39:09;23.60;99.90
1534;DHT22;760;48.822;9.304;2022-10-16T09:41:44;24.10;99.90
1534;DHT22;760;48.822;9.304;2022-10-16T09:44:31;24.40;99.90
1534;DHT22;760;48.822;9.304;2022-10-16T09:47:18;24.50;99.90
1534;DHT22;760;48.822;9.304;2022-10-16T09:50:22;24.90;99.90
1534;DHT22;760;48.822;9.304;2022-10-16T09:52:48;24.80;99.90
1534;DHT22;760;48.822;9.304;2022-10-16T09:55:15;24.60;99.90
1534;DHT22;760;48.822;9.304;2022-10-16T09:58:01;24.40;99.90
1534;DHT22;760;48.822;9.304;2022-10-16T10:00:26;24.20;99.90
1534;DHT22;760;48.822;9.304;2022-10-16T10:02:55;24.50;99.90
1534;DHT22;760;48.822;9.304;2022-10-16T10:05:30;25.20;99.90
1534;DHT22;760;48.822;9.304;2022-10-16T10:07:57;26.00;99.40
1534;DHT22;760;48.822;9.304;2022-10-16T10:10:30;26.30;99.20
1534;DHT22;760;48.822;9.304;2022-10-16T10:12:59;26.20;97.60
1534;DHT22;760;48.822;9.304;2022-10-16T10:15:26;26.00;97.70
1534;DHT22;760;48.822;9.304;2022-10-16T10:18:19;25.60;97.60
1534;DHT22;760;48.822;9.304;2022-10-16T10:20:57;25.50;98.20
1534;DHT22;760;48.822;9.304;2022-10-16T10:23:25;25.30;99.10
1534;DHT22;760;48.822;9.304;2022-10-16T10:26:15;25.40;98.90
1534;DHT22;760;48.822;9.304;2022-10-16T10:31:47;25.60;99.00
1534;DHT22;760;48.822;9.304;2022-10-16T10:34:50;25.60;98.70
1534;DHT22;760;48.822;9.304;2022-10-16T10:40:07;26.30;98.30
1534;DHT22;760;48.822;9.304;2022-10-16T10:43:10;26.40;98.60
1534;DHT22;760;48.822;9.304;2022-10-16T10:45:58;26.20;98.30
1534;DHT22;760;48.822;9.304;2022-10-16T11:04:23;26.80;97.50
1534;DHT22;760;48.822;9.304;2022-10-16T11:06:50;26.60;96.70
1534;DHT22;760;48.822;9.304;2022-10-16T11:12:30;25.70;97.70
1534;DHT22;760;48.822;9.304;2022-10-16T11:15:07;25.50;97.40
1534;DHT22;760;48.822;9.304;2022-10-16T11:17:53;25.30;97.20
1534;DHT22;760;48.822;9.304;2022-10-16T11:20:26;25.10;97.80
1534;DHT22;760;48.822;9.304;2022-10-16T11:23:16;25.00;98.50
1534;DHT22;760;48.822;9.304;2022-10-16T11:25:44;24.90;99.10
1534;DHT22;760;48.822;9.304;2022-10-16T11:28:56;24.80;98.40
1534;DHT22;760;48.822;9.304;2022-10-16T11:34:21;24.50;97.90
1534;DHT22;760;48.822;9.304;2022-10-16T11:37:17;24.50;99.10
1534;DHT22;760;48.822;9.304;2022-10-16T11:39:44;24.40;99.50
1534;DHT22;760;48.822;9.304;2022-10-16T11:42:16;24.40;98.30
1534;DHT22;760;48.822;9.304;2022-10-16T11:45:00;24.40;98.60
1534;DHT22;760;48.822;9.304;2022-10-16T11:47:51;24.30;98.20
1534;DHT22;760;48.822;9.304;2022-10-16T11:56:00;24.50;97.50
1534;DHT22;760;48.822;9.304;2022-10-16T11:59:05;24.50;97.40
1534;DHT22;760;48.822;9.304;2022-10-16T12:01:53;24.50;97.90
1534;DHT22;760;48.822;9.304;2022-10-16T12:05:03;24.60;97.90
1534;DHT22;760;48.822;9.304;2022-10-16T12:07:18;24.60;97.60
1534;DHT22;760;48.822;9.304;2022-10-16T12:09:45;24.70;97.20
1534;DHT22;760;48.822;9.304;2022-10-16T12:15:33;24.80;97.60
1534;DHT22;760;48.822;9.304;2022-10-16T12:18:23;24.90;97.30
1534;DHT22;760;48.822;9.304;2022-10-16T12:20:56;25.00;97.40
1534;DHT22;760;48.822;9.304;2022-10-16T12:23:45;25.00;97.30
1534;DHT22;760;48.822;9.304;2022-10-16T12:26:11;24.90;97.30
1534;DHT22;760;48.822;9.304;2022-10-16T12:28:37;24.90;97.10
1534;DHT22;760;48.822;9.304;2022-10-16T12:31:08;24.80;97.10
1534;DHT22;760;48.822;9.304;2022-10-16T12:33:41;24.70;97.40
1534;DHT22;760;48.822;9.304;2022-10-16T12:36:28;24.60;97.60
1534;DHT22;760;48.822;9.304;2022-10-16T12:38:54;24.50;97.90
1534;DHT22;760;48.822;9.304;2022-10-16T12:41:35;24.40;98.00
1534;DHT22;760;48.822;9.304;2022-10-16T12:44:19;24.40;98.20
1534;DHT22;760;48.822;9.304;2022-10-16T12:46:46;24.50;98.30
1534;DHT22;760;48.822;9.304;2022-10-16T12:51:39;24.70;98.20
1534;DHT22;760;48.822;9.304;2022-10-16T12:54:12;24.80;98.00
1534;DHT22;760;48.822;9.304;2022-10-16T13:10:51;24.80;97.20
1534;DHT22;760;48.822;9.304;2022-10-16T13:19:21;24.30;97.60
1534;DHT22;760;48.822;9.304;2022-10-16T13:22:03;24.30;97.60
1534;DHT22;760;48.822;9.304;2022-10-16T13:28:08;24.30;98.10
1534;DHT22;760;48.822;9.304;2022-10-16T13:30:51;24.40;98.30
1534;DHT22;760;48.822;9.304;2022-10-16T13:33:41;24.40;97.80
1534;DHT22;760;48.822;9.304;2022-10-16T13:36:23;24.40;97.60
1534;DHT22;760;48.822;9.304;2022-10-16T13:39:09;24.30;97.50
1534;DHT22;760;48.822;9.304;2022-10-16T13:41:36;24.20;97.70
1534;DHT22;760;48.822;9.304;2022-10-16T13:44:02;24.20;97.90
1534;DHT22;760;48.822;9.304;2022-10-16T13:46:31;24.20;97.60
1534;DHT22;760;48.822;9.304;2022-10-16T13:49:27;24.20;97.80
1534;DHT22;760;48.822;9.304;2022-10-16T13:51:57;24.20;97.90
1534;DHT22;760;48.822;9.304;2022-10-16T13:54:23;24.20;98.00
1534;DHT22;760;48.822;9.304;2022-10-16T13:57:16;24.20;97.80
1534;DHT22;760;48.822;9.304;2022-10-16T13:59:42;24.40;97.90
1534;DHT22;760;48.822;9.304;2022-10-16T14:02:27;24.40;97.80
1534;DHT22;760;48.822;9.304;2022-10-16T14:04:57;24.40;97.90
1534;DHT22;760;48.822;9.304;2022-10-16T14:07:28;24.40;97.80
1534;DHT22;760;48.822;9.304;2022-10-16T14:09:59;24.40;98.10
1534;DHT22;760;48.822;9.304;2022-10-16T14:12:27;24.40;97.90
1534;DHT22;760;48.822;9.304;2022-10-16T14:14:54;24.30;98.10
1534;DHT22;760;48.822;9.304;2022-10-16T14:17:29;24.20;98.00
1534;DHT22;760;48.822;9.304;2022-10-16T14:19:58;24.00;97.90
1534;DHT22;760;48.822;9.304;2022-10-16T14:24:59;23.80;98.80
1534;DHT22;760;48.822;9.304;2022-10-16T14:27:35;23.80;99.40
1534;DHT22;760;48.822;9.304;2022-10-16T14:30:12;23.60;99.90
1534;DHT22;760;48.822;9.304;2022-10-16T14:32:41;23.50;99.90
1534;DHT22;760;48.822;9.304;2022-10-16T14:35:29;23.50;99.90
1534;DHT22;760;48.822;9.304;2022-10-16T14:38:00;23.50;99.90
1534;DHT22;760;48.822;9.304;2022-10-16T14:40:30;23.50;99.90
1534;DHT22;760;48.822;9.304;2022-10-16T14:42:56;23.50;99.90
1534;DHT22;760;48.822;9.304;2022-10-16T14:45:28;23.60;99.90
1534;DHT22;760;48.822;9.304;2022-10-16T14:48:18;23.60;99.90
1534;DHT22;760;48.822;9.304;2022-10-16T14:50:45;23.60;99.90
1534;DHT22;760;48.822;9.304;2022-10-16T14:53:11;23.60;99.90
1534;DHT22;760;48.822;9.304;2022-10-16T14:55:40;23.60;99.90
1534;DHT22;760;48.822;9.304;2022-10-16T14:58:16;23.70;99.90
1534;DHT22;760;48.822;9.304;2022-10-16T15:00:45;23.70;99.90
1534;DHT22;760;48.822;9.304;2022-10-16T15:03:11;23.70;99.90
1534;DHT22;760;48.822;9.304;2022-10-16T15:05:38;23.70;99.90
1534;DHT22;760;48.822;9.304;2022-10-16T15:08:03;23.70;99.90
1534;DHT22;760;48.822;9.304;2022-10-16T15:10:38;23.60;99.90
1534;DHT22;760;48.822;9.304;2022-10-16T15:13:13;23.60;99.90
1534;DHT22;760;48.822;9.304;2022-10-16T15:15:43;23.60;99.90
1534;DHT22;760;48.822;9.304;2022-10-16T15:18:10;23.50;99.90
1534;DHT22;760;48.822;9.304;2022-10-16T15:20:38;23.50;99.90
1534;DHT22;760;48.822;9.304;2022-10-16T15:23:16;23.40;99.90
1534;DHT22;760;48.822;9.304;2022-10-16T15:25:45;23.30;99.90
1534;DHT22;760;48.822;9.304;2022-10-16T15:28:12;23.30;99.90
1534;DHT22;760;48.822;9.304;2022-10-16T15:30:38;23.20;99.90
1534;DHT22;760;48.822;9.304;2022-10-16T15:33:05;23.20;99.90
1534;DHT22;760;48.822;9.304;2022-10-16T15:35:35;23.20;99.90
1534;DHT22;760;48.822;9.304;2022-10-16T15:38:00;23.20;99.90
1534;DHT22;760;48.822;9.304;2022-10-16T15:40:27;23.20;99.90
1534;DHT22;760;48.822;9.304;2022-10-16T15:42:52;23.20;99.90
1534;DHT22;760;48.822;9.304;2022-10-16T15:45:18;23.10;99.90
1534;DHT22;760;48.822;9.304;2022-10-16T15:47:46;23.00;99.90
1534;DHT22;760;48.822;9.304;2022-10-16T15:50:14;22.90;99.90
1534;DHT22;760;48.822;9.304;2022-10-16T15:52:40;22.90;99.90
1534;DHT22;760;48.822;9.304;2022-10-16T15:55:11;22.80;99.90
1534;DHT22;760;48.822;9.304;2022-10-16T15:57:38;22.70;99.90
1534;DHT22;760;48.822;9.304;2022-10-16T16:00:21;22.50;99.90
1534;DHT22;760;48.822;9.304;2022-10-16T16:02:52;22.40;99.90
1534;DHT22;760;48.822;9.304;2022-10-16T16:05:21;22.40;99.90
1534;DHT22;760;48.822;9.304;2022-10-16T16:07:49;22.30;99.90
1534;DHT22;760;48.822;9.304;2022-10-16T16:10:15;22.20;99.90
1534;DHT22;760;48.822;9.304;2022-10-16T16:12:41;22.20;99.90
1534;DHT22;760;48.822;9.304;2022-10-16T16:15:28;22.10;99.90
1534;DHT22;760;48.822;9.304;2022-10-16T16:18:15;22.00;99.90
1534;DHT22;760;48.822;9.304;2022-10-16T16:20:43;21.80;99.90
1534;DHT22;760;48.822;9.304;2022-10-16T16:23:09;21.70;99.90
1534;DHT22;760;48.822;9.304;2022-10-16T16:25:34;21.70;99.90
1534;DHT22;760;48.822;9.304;2022-10-16T16:28:00;21.60;99.90
1534;DHT22;760;48.822;9.304;2022-10-16T16:30:26;21.40;99.90
1534;DHT22;760;48.822;9.304;2022-10-16T16:32:56;21.30;99.90
1534;DHT22;760;48.822;9.304;2022-10-16T16:35:22;21.20;99.90
1534;DHT22;760;48.822;9.304;2022-10-16T16:37:50;21.10;99.90
1534;DHT22;760;48.822;9.304;2022-10-16T16:40:19;20.90;99.90
1534;DHT22;760;48.822;9.304;2022-10-16T16:42:48;20.80;99.90
1534;DHT22;760;48.822;9.304;2022-10-16T16:45:14;20.70;99.90
1534;DHT22;760;48.822;9.304;2022-10-16T16:47:40;20.60;99.90
1534;DHT22;760;48.822;9.304;2022-10-16T16:50:06;20.50;99.90
1534;DHT22;760;48.822;9.304;2022-10-16T16:52:41;20.40;99.90
1534;DHT22;760;48.822;9.304;2022-10-16T16:55:26;20.30;99.90
1534;DHT22;760;48.822;9.304;2022-10-16T16:57:56;20.30;99.90
1534;DHT22;760;48.822;9.304;2022-10-16T17:00:23;20.30;99.90
1534;DHT22;760;48.822;9.304;2022-10-16T17:02:49;20.20;99.90
1534;DHT22;760;48.822;9.304;2022-10-16T17:05:15;20.20;99.90
1534;DHT22;760;48.822;9.304;2022-10-16T17:07:41;20.20;99.90
1534;DHT22;760;48.822;9.304;2022-10-16T17:10:10;20.20;99.90
1534;DHT22;760;48.822;9.304;2022-10-16T17:12:44;20.20;99.90
1534;DHT22;760;48.822;9.304;2022-10-16T17:15:10;20.20;99.90
1534;DHT22;760;48.822;9.304;2022-10-16T17:17:39;20.10;99.90
1534;DHT22;760;48.822;9.304;2022-10-16T17:20:06;20.10;99.90
1534;DHT22;760;48.822;9.304;2022-10-16T17:22:37;20.10;99.90
1534;DHT22;760;48.822;9.304;2022-10-16T17:25:03;20.10;99.90
1534;DHT22;760;48.822;9.304;2022-10-16T17:27:29;20.00;99.90
1534;DHT22;760;48.822;9.304;2022-10-16T17:29:55;19.90;99.90
1534;DHT22;760;48.822;9.304;2022-10-16T17:32:22;19.90;99.90
1534;DHT22;760;48.822;9.304;2022-10-16T17:34:48;19.90;99.90
1534;DHT22;760;48.822;9.304;2022-10-16T17:37:13;19.80;99.90
1534;DHT22;760;48.822;9.304;2022-10-16T17:39:39;19.80;99.90
1534;DHT22;760;48.822;9.304;2022-10-16T17:42:04;19.70;99.90
1534;DHT22;760;48.822;9.304;2022-10-16T17:44:30;19.60;99.90
1534;DHT22;760;48.822;9.304;2022-10-16T17:46:56;19.60;99.90
1534;DHT22;760;48.822;9.304;2022-10-16T17:49:21;19.50;99.90
1534;DHT22;760;48.822;9.304;2022-10-16T17:51:52;19.40;99.90
1534;DHT22;760;48.822;9.304;2022-10-16T17:54:18;19.30;99.90
1534;DHT22;760;48.822;9.304;2022-10-16T17:56:44;19.20;99.90
1534;DHT22;760;48.822;9.304;2022-10-16T17:59:10;19.10;99.90
1534;DHT22;760;48.822;9.304;2022-10-16T18:01:37;19.10;99.90
1534;DHT22;760;48.822;9.304;2022-10-16T18:04:13;19.00;99.90
1534;DHT22;760;48.822;9.304;2022-10-16T18:06:41;18.90;99.90
1534;DHT22;760;48.822;9.304;2022-10-16T18:09:09;18.80;99.90
1534;DHT22;760;48.822;9.304;2022-10-16T18:11:36;18.80;99.90
1534;DHT22;760;48.822;9.304;2022-10-16T18:14:02;18.70;99.90
1534;DHT22;760;48.822;9.304;2022-10-16T18:16:29;18.60;99.90
1534;DHT22;760;48.822;9.304;2022-10-16T18:18:56;18.60;99.90
1534;DHT22;760;48.822;9.304;2022-10-16T18:21:22;18.60;99.90
1534;DHT22;760;48.822;9.304;2022-10-16T18:23:49;18.50;99.90
1534;DHT22;760;48.822;9.304;2022-10-16T18:26:15;18.50;99.90
1534;DHT22;760;48.822;9.304;2022-10-16T18:28:41;18.50;99.90
1534;DHT22;760;48.822;9.304;2022-10-16T18:31:09;18.40;99.90
1534;DHT22;760;48.822;9.304;2022-10-16T18:33:36;18.40;99.90
1534;DHT22;760;48.822;9.304;2022-10-16T18:36:05;18.30;99.90
1534;DHT22;760;48.822;9.304;2022-10-16T18:38:32;18.30;99.90
1534;DHT22;760;48.822;9.304;2022-10-16T18:40:58;18.20;99.90
1534;DHT22;760;48.822;9.304;2022-10-16T18:43:27;18.20;99.90
1534;DHT22;760;48.822;9.304;2022-10-16T18:45:57;18.10;99.90
1534;DHT22;760;48.822;9.304;2022-10-16T18:48:23;18.00;99.90
1534;DHT22;760;48.822;9.304;2022-10-16T18:50:49;18.00;99.90
1534;DHT22;760;48.822;9.304;2022-10-16T18:53:14;18.00;99.90
1534;DHT22;760;48.822;9.304;2022-10-16T18:55:40;18.00;99.90
1534;DHT22;760;48.822;9.304;2022-10-16T18:58:05;18.00;99.90
1534;DHT22;760;48.822;9.304;2022-10-16T19:00:32;17.90;99.90
1534;DHT22;760;48.822;9.304;2022-10-16T19:02:58;17.90;99.90
1534;DHT22;760;48.822;9.304;2022-10-16T19:05:23;17.90;99.90
1534;DHT22;760;48.822;9.304;2022-10-16T19:07:49;17.90;99.90
1534;DHT22;760;48.822;9.304;2022-10-16T19:10:15;17.80;99.90
1534;DHT22;760;48.822;9.304;2022-10-16T19:12:40;17.80;99.90
1534;DHT22;760;48.822;9.304;2022-10-16T19:15:06;17.70;99.90
1534;DHT22;760;48.822;9.304;2022-10-16T19:17:32;17.70;99.90
1534;DHT22;760;48.822;9.304;2022-10-16T19:19:58;17.70;99.90
1534;DHT22;760;48.822;9.304;2022-10-16T19:22:23;17.70;99.90
1534;DHT22;760;48.822;9.304;2022-10-16T19:24:56;17.60;99.90
1534;DHT22;760;48.822;9.304;2022-10-16T19:27:21;17.50;99.90
1534;DHT22;760;48.822;9.304;2022-10-16T19:29:47;17.50;99.90
1534;DHT22;760;48.822;9.304;2022-10-16T19:32:13;17.50;99.90
1534;DHT22;760;48.822;9.304;2022-10-16T19:34:39;17.40;99.90
1534;DHT22;760;48.822;9.304;2022-10-16T19:37:04;17.30;99.90
1534;DHT22;760;48.822;9.304;2022-10-16T19:39:30;17.20;99.90
1534;DHT22;760;48.822;9.304;2022-10-16T19:41:55;17.10;99.90
1534;DHT22;760;48.822;9.304;2022-10-16T19:44:21;17.10;99.90
1534;DHT22;760;48.822;9.304;2022-10-16T19:46:47;17.00;99.90
1534;DHT22;760;48.822;9.304;2022-10-16T19:49:16;16.90;99.90
1534;DHT22;760;48.822;9.304;2022-10-16T19:51:46;16.80;99.90
1534;DHT22;760;48.822;9.304;2022-10-16T19:54:13;16.70;99.90
1534;DHT22;760;48.822;9.304;2022-10-16T19:56:40;16.70;99.90
1534;DHT22;760;48.822;9.304;2022-10-16T19:59:07;16.70;99.90
1534;DHT22;760;48.822;9.304;2022-10-16T20:01:33;16.60;99.90
1534;DHT22;760;48.822;9.304;2022-10-16T20:03:59;16.60;99.90
1534;DHT22;760;48.822;9.304;2022-10-16T20:06:25;16.70;99.90
1534;DHT22;760;48.822;9.304;2022-10-16T20:08:52;16.60;99.90
1534;DHT22;760;48.822;9.304;2022-10-16T20:11:24;16.50;99.90
1534;DHT22;760;48.822;9.304;2022-10-16T20:13:49;16.50;99.90
1534;DHT22;760;48.822;9.304;2022-10-16T20:16:15;16.40;99.90
1534;DHT22;760;48.822;9.304;2022-10-16T20:18:43;16.40;99.90
1534;DHT22;760;48.822;9.304;2022-10-16T20:21:14;16.30;99.90
1534;DHT22;760;48.822;9.304;2022-10-16T20:23:41;16.40;99.90
1534;DHT22;760;48.822;9.304;2022-10-16T20:26:07;16.30;99.90
1534;DHT22;760;48.822;9.304;2022-10-16T20:28:35;16.30;99.90
1534;DHT22;760;48.822;9.304;2022-10-16T20:31:13;16.30;99.90
1534;DHT22;760;48.822;9.304;2022-10-16T20:33:40;16.30;99.90
1534;DHT22;760;48.822;9.304;2022-10-16T20:36:10;16.30;99.90
1534;DHT22;760;48.822;9.304;2022-10-16T20:38:36;16.30;99.90
1534;DHT22;760;48.822;9.304;2022-10-16T20:41:02;16.30;99.90
1534;DHT22;760;48.822;9.304;2022-10-16T20:43:28;16.30;99.90
1534;DHT22;760;48.822;9.304;2022-10-16T20:46:02;16.40;99.90
1534;DHT22;760;48.822;9.304;2022-10-16T20:48:28;16.30;99.90
1534;DHT22;760;48.822;9.304;2022-10-16T20:50:54;16.40;99.90
1534;DHT22;760;48.822;9.304;2022-10-16T20:53:20;16.30;99.90
1534;DHT22;760;48.822;9.304;2022-10-16T20:55:46;16.30;99.90
1534;DHT22;760;48.822;9.304;2022-10-16T20:58:11;16.20;99.90
1534;DHT22;760;48.822;9.304;2022-10-16T21:00:38;16.20;99.90
1534;DHT22;760;48.822;9.304;2022-10-16T21:03:03;16.20;99.90
1534;DHT22;760;48.822;9.304;2022-10-16T21:05:29;16.20;99.90
1534;DHT22;760;48.822;9.304;2022-10-16T21:07:57;16.20;99.90
1534;DHT22;760;48.822;9.304;2022-10-16T21:10:22;16.10;99.90
1534;DHT22;760;48.822;9.304;2022-10-16T21:12:52;16.10;99.90
1534;DHT22;760;48.822;9.304;2022-10-16T21:15:19;16.00;99.90
1534;DHT22;760;48.822;9.304;2022-10-16T21:17:45;15.90;99.90
1534;DHT22;760;48.822;9.304;2022-10-16T21:20:10;15.80;99.90
1534;DHT22;760;48.822;9.304;2022-10-16T21:22:37;15.80;99.90
1534;DHT22;760;48.822;9.304;2022-10-16T21:25:04;15.70;99.90
1534;DHT22;760;48.822;9.304;2022-10-16T21:27:37;15.70;99.90
1534;DHT22;760;48.822;9.304;2022-10-16T21:30:05;15.60;99.90
1534;DHT22;760;48.822;9.304;2022-10-16T21:32:34;15.50;99.90
1534;DHT22;760;48.822;9.304;2022-10-16T21:34:59;15.50;99.90
1534;DHT22;760;48.822;9.304;2022-10-16T21:37:25;15.40;99.90
1534;DHT22;760;48.822;9.304;2022-10-16T21:39:54;15.40;99.90
1534;DHT22;760;48.822;9.304;2022-10-16T21:42:19;15.40;99.90
1534;DHT22;760;48.822;9.304;2022-10-16T21:44:45;15.30;99.90
1534;DHT22;760;48.822;9.304;2022-10-16T21:47:10;15.40;99.90
1534;DHT22;760;48.822;9.304;2022-10-16T21:49:36;15.30;99.90
1534;DHT22;760;48.822;9.304;2022-10-16T21:52:02;15.30;99.90
1534;DHT22;760;48.822;9.304;2022-10-16T21:54:28;15.30;99.90
1534;DHT22;760;48.822;9.304;2022-10-16T21:56:53;15.30;99.90
1534;DHT22;760;48.822;9.304;2022-10-16T21:59:19;15.30;99.90
